Time;durP1;ratioP1;P1;durP2;ratioP2;P2;SDS_P1;SDS_P2;PMS_P1;PMS_P2;Temp;Humidity;BMP_temperature;BMP_pressure;BME280_temperature;BME280_humidity;BME280_pressure;Samples;Min_cycle;Max_cycle;Signal;HPM_P1;HPM_P2
2023/07/05 00:01:23;;;;;;;6.95;1.95;;;;;;;;;;5022626;28;20053;-81
2023/07/05 00:03:50;;;;;;;3.17;2.00;;;;;;;;;;5005897;28;20041;-82
2023/07/05 00:06:16;;;;;;;4.55;2.00;;;;;;;;;;4995546;28;20122;-81
2023/07/05 00:08:42;;;;;;;4.38;2.65;;;;;;;;;;5019136;28;20029;-81
2023/07/05 00:11:11;;;;;;;5.88;2.03;;;;;;;;;;5005813;28;20030;-83
2023/07/05 00:13:51;;;;;;;2.97;2.00;;;;;;;;;;5021195;28;20022;-82
2023/07/05 00:16:17;;;;;;;4.45;2.20;;;;;;;;;;5022163;28;20032;-81
2023/07/05 00:18:43;;;;;;;3.75;2.00;;;;;;;;;;4987646;28;20033;-82
2023/07/05 00:21:10;;;;;;;3.05;1.98;;;;;;;;;;5035353;28;20022;-82
2023/07/05 00:23:37;;;;;;;8.70;2.30;;;;;;;;;;5012302;28;20462;-81
2023/07/05 00:26:05;;;;;;;5.80;2.10;;;;;;;;;;5022239;28;20022;-82
2023/07/05 00:28:34;;;;;;;3.55;1.80;;;;;;;;;;5005298;28;20113;-81
2023/07/05 00:31:01;;;;;;;3.80;2.25;;;;;;;;;;5005281;28;20026;-82
2023/07/05 00:33:27;;;;;;;3.38;1.90;;;;;;;;;;4988812;28;20038;-81
2023/07/05 07:25:53;;;;;;;6.05;2.88;;;;;;;;;;4986328;28;20030;-81
2023/07/05 07:39:02;;;;;;;3.90;1.80;;;;;;;;;;4907776;29;20157;-82
2023/07/05 07:53:14;;;;;;;;;;;;;;;;;;;;;
2023/07/05 08:09:09;;;;;;;4.57;2.15;;;;;;;;;;4987432;28;20037;-82
2023/07/05 08:15:33;;;;;;;;;;;;;;;;;;;;;
2023/07/05 08:50:41;;;;;;;4.32;2.20;;;;;;;;;;5020083;28;20151;-82
2023/07/05 09:09:55;;;;;;;5.88;1.92;;;;;;;;;;5460654;23;20064;-81
2023/07/05 09:25:50;;;;;;;5.43;1.80;;;;;;;;;;4946156;29;20062;-81
2023/07/05 15:31:52;;;;;;;;;;;22.90;79.40;;;;;;4924601;29;20049;-82
2023/07/05 15:34:25;;;;;;;4.30;1.97;;;;;;;;;;4922391;29;19918;-84
2023/07/05 15:36:53;;;;;;;5.43;1.98;;;;;;;;;;4927464;29;20028;-81
2023/07/05 15:39:19;;;;;;;3.03;1.50;;;;;;;;;;4926633;29;20083;-82
2023/07/05 15:41:56;;;;;;;3.47;1.77;;;;;;;;;;4930289;29;20039;-80
2023/07/05 15:44:27;;;;;;;4.57;2.10;;;;;;;;;;4912766;29;20481;-81
2023/07/05 15:46:56;;;;;;;6.25;2.47;;;;;;;;;;4922637;29;20036;-80
2023/07/05 15:49:23;;;;;;;5.90;1.80;;;;;;;;;;4922498;29;20048;-82
2023/07/05 15:51:49;;;;;;;5.00;1.90;;;;;;;;;;4911106;29;20125;-82
2023/07/05 15:54:20;;;;;;;4.55;1.83;;;;;;;;;;4909624;29;20032;-82
2023/07/05 15:56:52;;;;;;;3.53;1.63;;;;;;;;;;4908567;29;20052;-81
2023/07/05 15:59:25;;;;;;;5.93;2.53;;;;;;;;;;4915423;29;20028;-82
2023/07/05 16:05:26;;;;;;;5.00;2.10;;;;;;;;;;4904972;29;20036;-81
2023/07/05 16:07:52;;;;;;;5.60;2.00;;;;;;;;;;4931575;29;20037;-82
2023/07/05 16:10:18;;;;;;;6.13;3.53;;;;;;;;;;4933175;29;20024;-83
2023/07/05 16:12:53;;;;;;;5.30;3.28;;;;;;;;;;4905484;29;20024;-81
2023/07/05 16:15:31;;;;;;;5.75;3.13;;;;;;;;;;4911588;29;20024;-81
2023/07/05 16:18:13;;;;;;;7.55;2.90;;;;;;;;;;4942559;29;20072;-81
2023/07/05 16:20:47;;;;;;;5.57;3.10;;;;;;;;;;4921452;29;20012;-84
2023/07/05 16:23:15;;;;;;;5.80;3.35;;;;;;;;;;4925222;29;20099;-82
2023/07/05 16:25:53;;;;;;;7.10;3.30;;;;;;;;;;4940927;29;20103;-82
2023/07/05 16:28:30;;;;;;;6.30;2.83;;;;;;;;;;4910885;29;20095;-81
2023/07/05 16:44:24;;;;;;;7.10;2.70;;;;;;;;;;4939826;29;20486;-80
2023/07/05 16:47:22;;;;;;;4.20;1.70;;;;;;;;;;4921561;29;20091;-81
2023/07/05 16:50:16;;;;;;;4.63;1.90;;;;;;;;;;4920979;29;20104;-81
2023/07/05 16:53:01;;;;;;;5.13;2.08;;;;;;;;;;4905799;29;20036;-81
2023/07/05 20:04:45;;;;;;;5.00;2.13;;;;;;;;;;4938130;23;20050;-82
2023/07/05 20:07:17;;;;;;;5.22;2.20;;;;;;;;;;4928251;29;20035;-81
2023/07/05 20:09:48;;;;;;;6.97;2.00;;;;;;;;;;4928374;29;20378;-82
2023/07/05 20:12:22;;;;;;;5.75;2.10;;;;;;;;;;4917687;29;20104;-81
2023/07/05 20:14:48;;;;;;;6.20;2.65;;;;;;;;;;4929900;29;20012;-82
2023/07/05 20:17:15;;;;;;;6.65;1.92;;;;;;;;;;4908667;29;20032;-82
2023/07/05 20:19:42;;;;;;;3.28;2.03;;;;;;;;;;4924743;29;20024;-81
2023/07/05 20:22:08;;;;;;;3.45;1.60;;;;;;;;;;4928387;29;20027;-84
2023/07/05 20:24:35;;;;;;;4.82;2.38;;;;;;;;;;4914350;29;20028;-81
2023/07/05 20:27:02;;;;;;;3.35;1.63;;;;;;;;;;4915951;29;22045;-83
2023/07/05 20:29:29;;;;;;;7.38;2.13;;;;;;;;;;4930469;29;20433;-81
2023/07/05 20:31:57;;;;;;;6.93;2.25;;;;;;;;;;4912603;29;20040;-81
2023/07/05 20:34:26;;;;;;;6.45;2.30;;;;;;;;;;4914424;29;20040;-82
2023/07/05 20:36:52;;;;;;;6.17;2.20;;;;;;;;;;4928416;29;20029;-82
2023/07/05 20:39:18;;;;;;;5.88;2.42;;;;;;;;;;4903967;29;20029;-81
2023/07/05 20:41:45;;;;;;;4.15;2.20;;;;;;;;;;4926454;29;20052;-83
2023/07/05 20:44:11;;;;;;;5.63;1.92;;;;;;;;;;4932580;29;20035;-82
2023/07/05 20:46:39;;;;;;;7.88;2.30;;;;;;;;;;4916218;29;20046;-83
2023/07/05 20:49:06;;;;;;;5.20;2.55;;;;;;;;;;4925061;29;20500;-82
2023/07/05 20:51:35;;;;;;;5.97;1.95;;;;;;;;;;4950020;29;20035;-82
2023/07/05 20:54:08;;;;;;;5.13;2.17;;;;;;;;;;4930609;29;20493;-82
2023/07/05 20:56:34;;;;;;;5.57;2.25;;;;;;;;;;4912234;29;20049;-82
2023/07/05 20:59:01;;;;;;;4.72;2.00;;;;;;;;;;4927475;29;20032;-81
2023/07/05 21:01:31;;;;;;;3.90;2.13;;;;;;;;;;4907037;29;20127;-82
2023/07/05 21:06:33;;;;;;;3.78;1.77;;;;;;;;;;4975944;23;20039;-91
2023/07/05 21:09:00;;;;;;;5.88;2.08;;;;;;;;;;4905543;29;20017;-90
2023/07/05 21:11:28;;;;;;;6.18;2.13;;;;;;;;;;4928285;28;20036;-89
2023/07/05 21:13:54;;;;;;;4.47;1.85;;;;;;;;;;4911951;29;20021;-88
2023/07/05 21:16:21;;;;;;;5.85;1.98;;;;;;;;;;4928408;28;20012;-89
2023/07/05 21:18:47;;;;;;;4.80;2.00;;;;;;;;;;4911732;28;20060;-89
2023/07/05 21:21:13;;;;;;;5.00;2.10;;;;;;;;;;4929415;28;20028;-87
2023/07/05 21:23:39;;;;;;;5.68;2.40;;;;;;;;;;4922591;29;20012;-90
2023/07/05 21:26:06;;;;;;;8.25;2.53;;;;;;;;;;4925990;29;20104;-88
2023/07/05 21:28:35;;;;;;;8.75;2.78;;;;;;;;;;4910985;29;20031;-88
2023/07/05 21:31:02;;;;;;;5.15;2.22;;;;;;;;;;4925391;28;20020;-89
2023/07/05 21:33:28;;;;;;;3.55;2.00;;;;;;;;;;4904588;29;20029;-85
2023/07/05 21:35:55;;;;;;;4.78;2.28;;;;;;;;;;4901159;29;20508;-86
2023/07/05 21:38:22;;;;;;;7.68;2.15;;;;;;;;;;4912165;29;20405;-88
2023/07/05 21:40:51;;;;;;;6.15;2.30;;;;;;;;;;4912447;29;20021;-86
2023/07/05 21:43:21;;;;;;;4.47;2.25;;;;;;;;;;4916974;29;20020;-84
2023/07/05 21:45:47;;;;;;;6.93;2.38;;;;;;;;;;4912251;29;20115;-88
2023/07/05 21:48:13;;;;;;;4.82;2.00;;;;;;;;;;4895970;29;20044;-84
2023/07/05 21:50:43;;;;;;;7.50;2.30;;;;;;;;;;4897268;29;20079;-86
2023/07/05 21:53:09;;;;;;;5.68;2.20;;;;;;;;;;4899139;29;20033;-83
2023/07/05 21:55:35;;;;;;;5.22;2.25;;;;;;;;;;4897458;29;20048;-85
2023/07/05 21:58:01;;;;;;;3.60;1.83;;;;;;;;;;4927474;29;20021;-87
2023/07/05 22:00:28;;;;;;;4.40;2.00;;;;;;;;;;4926454;28;20112;-84
2023/07/05 22:02:56;;;;;;;8.20;2.20;;;;;;;;;;4909610;29;20117;-85
2023/07/05 22:05:28;;;;;;;3.92;2.03;;;;;;;;;;4916046;29;20029;-84
2023/07/05 22:07:54;;;;;;;6.22;2.40;;;;;;;;;;4920193;29;20025;-86
2023/07/05 22:10:22;;;;;;;5.20;1.90;;;;;;;;;;4913638;29;20088;-85
2023/07/05 22:12:51;;;;;;;6.38;1.98;;;;;;;;;;4911607;29;20060;-85
2023/07/05 22:15:18;;;;;;;4.20;1.88;;;;;;;;;;4896021;29;20033;-85
2023/07/05 22:17:44;;;;;;;5.22;2.22;;;;;;;;;;4908808;29;20370;-84
2023/07/05 22:20:14;;;;;;;4.38;1.90;;;;;;;;;;4912835;29;20035;-85
2023/07/05 22:22:42;;;;;;;6.82;2.08;;;;;;;;;;4905850;29;20040;-87
2023/07/05 22:25:10;;;;;;;5.93;2.00;;;;;;;;;;4893753;29;20037;-85
2023/07/05 22:27:36;;;;;;;4.40;1.80;;;;;;;;;;4910998;29;20060;-86
2023/07/05 22:30:04;;;;;;;3.88;2.10;;;;;;;;;;4911967;29;20033;-87
2023/07/05 22:32:31;;;;;;;4.88;2.10;;;;;;;;;;4908301;29;20033;-84
2023/07/05 22:34:57;;;;;;;6.32;2.30;;;;;;;;;;4910206;29;20047;-83
2023/07/05 22:37:24;;;;;;;5.85;2.08;;;;;;;;;;4893487;29;20124;-87
2023/07/05 22:39:51;;;;;;;4.03;2.00;;;;;;;;;;4894278;29;20500;-85
2023/07/05 22:42:18;;;;;;;7.90;2.13;;;;;;;;;;4909012;29;20036;-85
2023/07/05 22:44:44;;;;;;;7.13;2.58;;;;;;;;;;4897387;29;20021;-86
2023/07/05 22:47:13;;;;;;;4.95;2.33;;;;;;;;;;4889633;29;20027;-86
2023/07/05 22:49:39;;;;;;;3.83;2.08;;;;;;;;;;4895467;29;20040;-85
2023/07/05 22:52:06;;;;;;;5.47;2.28;;;;;;;;;;4892813;29;20032;-87
2023/07/05 22:54:32;;;;;;;5.03;2.50;;;;;;;;;;4896129;29;20096;-86
2023/07/05 22:56:59;;;;;;;4.40;2.00;;;16.90;99.90;;;;;;4911101;29;20029;-86
2023/07/05 22:59:25;;;;;;;5.85;2.60;;;;;;;;;;4895494;29;20080;-85
2023/07/05 23:01:58;;;;;;;5.53;2.25;;;;;;;;;;4910581;29;20028;-88
2023/07/05 23:04:25;;;;;;;4.85;2.47;;;16.70;99.90;;;;;;4894629;29;20037;-86
2023/07/05 23:06:51;;;;;;;6.13;2.40;;;;;;;;;;4910846;29;20505;-86
2023/07/05 23:09:17;;;;;;;5.25;2.45;;;;;;;;;;4909289;29;20048;-83
2023/07/05 23:11:43;;;;;;;5.25;2.50;;;;;;;;;;4899737;29;20032;-89
2023/07/05 23:14:10;;;;;;;4.32;2.20;;;;;;;;;;4910641;29;20040;-85
2023/07/05 23:16:36;;;;;;;6.25;2.55;;;;;;;;;;4913100;29;20089;-85
2023/07/05 23:19:04;;;;;;;7.10;2.20;;;;;;;;;;4912639;29;20028;-84
2023/07/05 23:21:30;;;;;;;6.53;2.45;;;;;;;;;;4893099;29;20059;-88
2023/07/05 23:23:56;;;;;;;7.25;2.20;;;;;;;;;;4907955;29;20526;-82
2023/07/05 23:26:23;;;;;;;4.22;1.90;;;;;;;;;;4909443;29;20056;-85
2023/07/05 23:28:53;;;;;;;6.70;2.22;;;;;;;;;;4912659;29;20032;-82
2023/07/05 23:31:34;;;;;;;6.53;2.60;;;16.30;99.90;;;;;;4909159;29;20025;-86
2023/07/05 23:34:00;;;;;;;5.80;2.60;;;;;;;;;;4903870;29;20041;-87
2023/07/05 23:36:28;;;;;;;6.88;2.63;;;;;;;;;;4910660;29;20032;-88
2023/07/05 23:38:55;;;;;;;8.43;2.90;;;16.20;99.90;;;;;;4893326;29;20079;-85
2023/07/05 23:41:24;;;;;;;3.67;2.33;;;16.20;99.90;;;;;;4892164;29;20031;-84
2023/07/05 23:43:50;;;;;;;5.72;2.78;;;;;;;;;;4909810;29;20558;-86
2023/07/05 23:46:17;;;;;;;6.43;2.53;;;;;;;;;;4908411;29;20540;-85
2023/07/05 23:48:43;;;;;;;9.13;2.95;;;;;;;;;;4908974;29;20028;-84
2023/07/05 23:51:10;;;;;;;3.53;2.45;;;;;;;;;;4894730;29;20679;-85
2023/07/05 23:53:41;;;;;;;4.13;2.10;;;;;;;;;;4893452;29;20024;-85
2023/07/05 23:56:08;;;;;;;4.28;2.20;;;16.00;99.90;;;;;;4911082;29;20040;-85
2023/07/05 23:58:34;;;;;;;6.20;2.42;;;;;;;;;;4894802;29;20032;-85
